createdAt,value
2016-11-04T00:00:19.621Z,76.1
2016-11-04T00:01:19.635Z,76.01
2016-11-04T00:02:19.650Z,75.62
2016-11-04T00:03:19.668Z,75.62
2016-11-04T00:04:19.687Z,75.81
2016-11-04T00:05:19.700Z,75.91
2016-11-04T00:06:19.711Z,75.62
2016-11-04T00:07:19.729Z,76.39
2016-11-04T00:08:19.744Z,76.01
2016-11-04T00:09:19.758Z,76.01
2016-11-04T00:10:19.773Z,76.29
2016-11-04T00:11:19.792Z,76.39
2016-11-04T00:12:19.799Z,75.81
2016-11-04T00:13:19.820Z,76.2
2016-11-04T00:14:19.858Z,75.91
2016-11-04T00:15:19.873Z,76.1
2016-11-04T00:16:19.860Z,76.39
2016-11-04T00:17:19.951Z,76.29
2016-11-04T00:18:20.004Z,76.1
2016-11-04T00:19:19.903Z,76.1
2016-11-04T00:20:19.923Z,76.1
2016-11-04T00:21:19.940Z,76.29
2016-11-04T00:22:19.951Z,76.01
2016-11-04T00:23:19.976Z,76.1
2016-11-04T00:24:19.993Z,76.67
2016-11-04T00:25:19.997Z,76.48
2016-11-04T00:26:20.015Z,77.15
2016-11-04T00:27:20.034Z,76.96
2016-11-04T00:28:20.050Z,76.96
2016-11-04T00:29:20.066Z,76.57
2016-11-04T00:30:20.083Z,76.67
2016-11-04T00:31:20.098Z,76.76
2016-11-04T00:32:20.114Z,76.57
2016-11-04T00:33:20.120Z,76.76
2016-11-04T00:34:20.147Z,76.76
2016-11-04T00:35:20.154Z,76.67
2016-11-04T00:36:20.178Z,77.05
2016-11-04T00:37:20.183Z,76.57
2016-11-04T00:38:20.198Z,76.39
2016-11-04T00:39:20.217Z,77.15
2016-11-04T00:40:20.233Z,77.05
2016-11-04T00:41:20.255Z,76.76
2016-11-04T00:42:20.264Z,76.76
2016-11-04T00:43:20.279Z,77.15
2016-11-04T00:44:20.298Z,77.05
2016-11-04T00:45:20.313Z,77.15
2016-11-04T00:46:20.323Z,76.48
2016-11-04T00:47:20.338Z,76.48
2016-11-04T00:48:20.361Z,76.86
2016-11-04T00:49:20.375Z,76.76
2016-11-04T00:50:20.390Z,76.96
2016-11-04T00:51:20.403Z,76.76
2016-11-04T00:52:20.417Z,76.67
2016-11-04T00:53:20.435Z,76.39
2016-11-04T00:54:20.452Z,76.76
2016-11-04T00:55:20.465Z,76.1
2016-11-04T00:56:20.477Z,76.29
2016-11-04T00:57:20.492Z,76.01
2016-11-04T00:58:20.512Z,76.2
2016-11-04T00:59:20.522Z,76.1
2016-11-04T01:00:20.546Z,76.29
2016-11-04T01:01:20.556Z,76.01
2016-11-04T01:02:20.570Z,76.01
2016-11-04T01:03:20.587Z,76.01
2016-11-04T01:04:20.608Z,76.29
2016-11-04T01:05:20.612Z,76.1
2016-11-04T01:06:20.664Z,76.29
2016-11-04T01:07:20.641Z,76.1
2016-11-04T01:08:20.665Z,76.1
2016-11-04T01:09:20.672Z,75.72
2016-11-04T01:10:20.692Z,76.2
2016-11-04T01:11:20.705Z,75.91
2016-11-04T01:12:20.725Z,76.1
2016-11-04T01:13:20.733Z,76.01
2016-11-04T01:14:20.759Z,75.91
2016-11-04T01:15:20.768Z,75.81
2016-11-04T01:16:20.789Z,76.1
2016-11-04T01:17:20.802Z,76.1
2016-11-04T01:18:20.812Z,76.01
2016-11-04T01:19:20.828Z,75.91
2016-11-04T01:20:20.847Z,76.29
2016-11-04T01:21:20.859Z,76.29
2016-11-04T01:22:20.871Z,76.1
2016-11-04T01:23:20.893Z,76.01
2016-11-04T01:24:20.903Z,76.1
2016-11-04T01:25:20.915Z,76.2
2016-11-04T01:26:20.933Z,76.29
2016-11-04T01:27:20.952Z,76.1
2016-11-04T01:28:20.968Z,76.29
2016-11-04T01:29:20.981Z,76.1
2016-11-04T01:30:20.994Z,75.91
2016-11-04T01:31:21.008Z,76.01
2016-11-04T01:32:21.029Z,76.1
2016-11-04T01:33:21.050Z,76.01
2016-11-04T01:34:21.088Z,76.01
2016-11-04T01:35:21.072Z,75.91
2016-11-04T01:36:21.093Z,76.01
2016-11-04T01:37:21.110Z,75.72
2016-11-04T01:38:21.131Z,76.01
2016-11-04T01:39:21.139Z,75.91
2016-11-04T01:40:21.153Z,76.29
2016-11-04T01:41:21.171Z,75.81
2016-11-04T01:42:21.187Z,76.01
2016-11-04T01:43:21.204Z,75.91
2016-11-04T01:44:21.208Z,75.91
2016-11-04T01:45:21.231Z,76.48
2016-11-04T01:46:21.246Z,76.48
2016-11-04T01:47:21.268Z,76.57
2016-11-04T01:48:21.276Z,76.48
2016-11-04T01:49:21.286Z,76.48
2016-11-04T01:50:21.305Z,76.76
2016-11-04T01:51:21.326Z,76.67
2016-11-04T01:52:21.336Z,75.91
2016-11-04T01:53:21.350Z,76.86
2016-11-04T01:54:21.365Z,76.57
2016-11-04T01:55:21.387Z,76.96
2016-11-04T01:56:21.395Z,76.76
2016-11-04T01:57:21.412Z,76.86
2016-11-04T01:58:21.422Z,76.01
2016-11-04T01:59:21.443Z,76.57
2016-11-04T02:00:21.457Z,76.96
2016-11-04T02:01:21.471Z,77.15
2016-11-04T02:02:21.484Z,77.05
2016-11-04T02:03:21.506Z,76.1
2016-11-04T02:04:21.520Z,77.05
2016-11-04T02:05:21.532Z,76.39
2016-11-04T02:06:21.546Z,76.82
2016-11-04T02:07:21.564Z,76.73
2016-11-04T02:08:21.578Z,76.44
2016-11-04T02:09:21.592Z,76.73
2016-11-04T02:10:21.612Z,75.78
2016-11-04T02:11:21.622Z,76.73
2016-11-04T02:12:21.633Z,76.63
2016-11-04T02:13:21.648Z,76.82
2016-11-04T02:14:21.665Z,76.92
2016-11-04T02:15:21.682Z,76.82
2016-11-04T02:16:21.693Z,76.63
2016-11-04T02:17:21.711Z,77.01
2016-11-04T02:18:21.725Z,76.44
2016-11-04T02:19:21.742Z,76.44
2016-11-04T02:20:21.753Z,75.68
2016-11-04T02:21:21.771Z,77.11
2016-11-04T02:22:21.783Z,77.11
2016-11-04T02:23:21.805Z,76.92
2016-11-04T02:24:21.817Z,77.11
2016-11-04T02:25:21.831Z,76.44
2016-11-04T02:26:21.846Z,76.54
2016-11-04T02:27:21.860Z,76.35
2016-11-04T02:28:21.878Z,75.96
2016-11-04T02:29:21.892Z,76.92
2016-11-04T02:30:21.905Z,76.54
2016-11-04T02:31:21.926Z,76.44
2016-11-04T02:32:21.933Z,76.35
2016-11-04T02:33:21.946Z,76.92
2016-11-04T02:34:21.965Z,76.82
2016-11-04T02:35:22.298Z,76.82
2016-11-04T02:36:22.002Z,77.11
2016-11-04T02:37:22.010Z,76.35
2016-11-04T02:38:22.028Z,77.11
2016-11-04T02:39:22.039Z,76.54
2016-11-04T02:40:22.059Z,76.54
2016-11-04T02:41:22.074Z,76.73
2016-11-04T02:42:22.086Z,76.44
2016-11-04T02:43:22.104Z,76.35
2016-11-04T02:44:22.115Z,77.01
2016-11-04T02:45:22.136Z,76.54
2016-11-04T02:46:22.147Z,76.54
2016-11-04T02:47:22.183Z,76.92
2016-11-04T02:48:22.177Z,76.16
2016-11-04T02:49:22.192Z,76.63
2016-11-04T02:50:22.199Z,76.82
2016-11-04T02:51:22.213Z,76.25
2016-11-04T02:52:22.234Z,76.82
2016-11-04T02:53:22.247Z,76.92
2016-11-04T02:54:22.265Z,76.82
2016-11-04T02:55:22.279Z,76.63
2016-11-04T02:56:22.292Z,76.73
2016-11-04T02:57:22.307Z,76.54
2016-11-04T02:58:22.329Z,76.73
2016-11-04T02:59:22.338Z,76.63
2016-11-04T03:00:22.346Z,76.82
2016-11-04T03:01:22.364Z,76.73
2016-11-04T03:02:22.371Z,76.73
2016-11-04T03:03:22.393Z,76.54
2016-11-04T03:04:22.412Z,76.63
2016-11-04T03:05:22.425Z,76.54
2016-11-04T03:06:22.432Z,76.63
2016-11-04T03:07:22.450Z,76.73
2016-11-04T03:08:22.471Z,76.82
2016-11-04T03:09:22.486Z,76.44
2016-11-04T03:10:22.501Z,76.92
2016-11-04T03:11:22.516Z,76.82
2016-11-04T03:12:22.531Z,76.73
2016-11-04T03:13:22.541Z,76.82
2016-11-04T03:14:22.561Z,76.82
2016-11-04T03:15:22.573Z,76.73
2016-11-04T03:16:22.588Z,76.63
2016-11-04T03:17:22.607Z,77.2
2016-11-04T03:18:22.619Z,77.39
2016-11-04T03:19:22.640Z,77.01
2016-11-04T03:20:22.645Z,77.2
2016-11-04T03:21:22.665Z,77.11
2016-11-04T03:22:22.668Z,77.11
2016-11-04T03:23:23.007Z,77.2
2016-11-04T03:24:22.705Z,76.63
2016-11-04T03:25:22.719Z,77.2
2016-11-04T03:26:22.733Z,76.44
2016-11-04T03:27:22.751Z,76.63
2016-11-04T03:28:22.764Z,76.44
2016-11-04T03:29:22.783Z,77.2
2016-11-04T03:30:22.800Z,76.54
2016-11-04T03:31:22.812Z,77.11
2016-11-04T03:32:22.821Z,77.3
2016-11-04T03:33:22.836Z,76.63
2016-11-04T03:34:22.855Z,77.07
2016-11-04T03:35:22.867Z,77.2
2016-11-04T03:36:22.879Z,76.73
2016-11-04T03:37:22.897Z,77.3
2016-11-04T03:38:22.913Z,77.01
2016-11-04T03:39:22.926Z,77.01
2016-11-04T03:40:22.941Z,77.2
2016-11-04T03:41:22.959Z,76.82
2016-11-04T03:42:22.971Z,77.2
2016-11-04T03:43:22.987Z,77.26
2016-11-04T03:44:22.999Z,77.2
2016-11-04T03:45:23.013Z,77.11
2016-11-04T03:46:23.029Z,77.07
2016-11-04T03:47:23.047Z,76.63
2016-11-04T03:48:23.373Z,77.26
2016-11-04T03:49:23.069Z,77.07
2016-11-04T03:50:23.092Z,77.11
2016-11-04T03:51:23.096Z,77.01
2016-11-04T03:52:23.116Z,76.88
2016-11-04T03:53:23.133Z,76.82
2016-11-04T03:54:23.146Z,76.92
2016-11-04T03:55:23.161Z,77.07
2016-11-04T03:56:23.176Z,77.3
2016-11-04T03:57:23.188Z,76.5
2016-11-04T03:58:23.202Z,76.31
2016-11-04T03:59:23.218Z,77.36
2016-11-04T04:00:23.232Z,77.07
2016-11-04T04:01:23.255Z,77.26
2016-11-04T04:02:23.262Z,77.17
2016-11-04T04:03:23.277Z,76.69
2016-11-04T04:04:23.324Z,77.07
2016-11-04T04:05:23.305Z,76.69
2016-11-04T04:06:23.322Z,76.78
2016-11-04T04:07:23.334Z,76.78
2016-11-04T04:08:23.358Z,76.88
2016-11-04T04:09:23.368Z,77.07
2016-11-04T04:10:23.395Z,77.07
2016-11-04T04:11:23.399Z,76.97
2016-11-04T04:12:23.406Z,76.97
2016-11-04T04:13:23.420Z,76.88
2016-11-04T04:14:23.443Z,76.69
2016-11-04T04:15:23.491Z,76.88
2016-11-04T04:16:23.460Z,76.78
2016-11-04T04:17:23.478Z,76.78
2016-11-04T04:18:23.827Z,77.07
2016-11-04T04:19:23.509Z,76.88
2016-11-04T04:20:23.523Z,77.17
2016-11-04T04:21:23.535Z,76.59
2016-11-04T04:22:23.550Z,76.88
2016-11-04T04:23:23.564Z,76.97
2016-11-04T04:24:23.586Z,76.97
2016-11-04T04:25:23.597Z,76.97
2016-11-04T04:26:23.620Z,76.69
2016-11-04T04:27:23.620Z,76.88
2016-11-04T04:28:23.641Z,76.78
2016-11-04T04:29:23.649Z,77.17
2016-11-04T04:30:23.669Z,77.07
2016-11-04T04:31:23.676Z,76.78
2016-11-04T04:32:23.700Z,76.69
2016-11-04T04:33:23.708Z,77.17
2016-11-04T04:34:24.050Z,77.17
2016-11-04T04:35:23.737Z,77.36
2016-11-04T04:36:23.759Z,77.17
2016-11-04T04:37:23.766Z,77.55
2016-11-04T04:38:23.784Z,76.97
2016-11-04T04:39:23.798Z,76.97
2016-11-04T04:40:23.822Z,76.88
2016-11-04T04:41:23.824Z,77.17
2016-11-04T04:42:23.847Z,76.78
2016-11-04T04:43:23.858Z,77.07
2016-11-04T04:44:23.866Z,76.97
2016-11-04T04:45:23.877Z,76.97
2016-11-04T04:46:23.901Z,76.78
2016-11-04T04:47:23.916Z,77.07
2016-11-04T04:48:23.927Z,77.07
2016-11-04T04:49:23.969Z,76.69
2016-11-04T04:50:23.955Z,77.17
2016-11-04T04:51:23.975Z,76.69
2016-11-04T04:52:23.987Z,76.88
2016-11-04T04:53:24.001Z,76.69
2016-11-04T04:54:24.018Z,76.78
2016-11-04T04:55:24.030Z,76.97
2016-11-04T04:56:24.044Z,76.97
2016-11-04T04:57:24.060Z,77.36
2016-11-04T04:58:24.073Z,77.36
2016-11-04T04:59:24.089Z,77.26
2016-11-04T05:00:24.095Z,77.26
2016-11-04T05:01:24.117Z,77.17
2016-11-04T05:02:24.441Z,77.17
2016-11-04T05:03:24.147Z,77.36
2016-11-04T05:04:24.166Z,77.17
2016-11-04T05:05:24.172Z,77.36
2016-11-04T05:06:24.190Z,77.26
2016-11-04T05:07:24.207Z,77.45
2016-11-04T05:08:24.222Z,77.17
2016-11-04T05:09:24.229Z,77.07
2016-11-04T05:10:24.244Z,77.07
2016-11-04T05:11:24.256Z,77.17
2016-11-04T05:12:24.281Z,77.26
2016-11-04T05:13:24.288Z,77.45
2016-11-04T05:14:24.305Z,77.26
2016-11-04T05:15:24.311Z,77.26
2016-11-04T05:16:24.697Z,77.07
2016-11-04T05:17:24.347Z,77.36
2016-11-04T05:18:24.362Z,77.73
2016-11-04T05:19:24.371Z,77.36
2016-11-04T05:20:24.392Z,77.36
2016-11-04T05:21:24.404Z,77.36
2016-11-04T05:22:24.417Z,77.45
2016-11-04T05:23:24.438Z,77.55
2016-11-04T05:24:24.452Z,77.17
2016-11-04T05:25:24.457Z,77.83
2016-11-04T05:26:24.473Z,77.26
2016-11-04T05:27:24.486Z,77.36
2016-11-04T05:28:24.502Z,77.36
2016-11-04T05:29:24.520Z,77.36
2016-11-04T05:30:24.537Z,77.55
2016-11-04T05:31:24.548Z,77.45
2016-11-04T05:32:24.564Z,77.36
2016-11-04T05:33:24.572Z,77.36
2016-11-04T05:34:24.585Z,77.26
2016-11-04T05:35:24.613Z,77.36
2016-11-04T05:36:24.656Z,77.83
2016-11-04T05:37:24.633Z,77.83
2016-11-04T05:38:24.654Z,77.26
2016-11-04T05:39:24.664Z,77.07
2016-11-04T05:40:24.679Z,77.36
2016-11-04T05:41:24.691Z,77.73
2016-11-04T05:42:24.698Z,77.83
2016-11-04T05:43:24.714Z,77.73
2016-11-04T05:44:24.739Z,77.55
2016-11-04T05:45:24.750Z,77.83
2016-11-04T05:46:24.760Z,77.07
2016-11-04T05:47:24.778Z,77.36
2016-11-04T05:48:24.784Z,77.64
2016-11-04T05:49:24.810Z,77.36
2016-11-04T05:50:24.821Z,77.26
2016-11-04T05:51:24.837Z,77.73
2016-11-04T05:52:24.849Z,77.64
2016-11-04T05:53:24.859Z,77.26
2016-11-04T05:54:24.878Z,77.45
2016-11-04T05:55:24.892Z,77.26
2016-11-04T05:56:24.911Z,77.36
2016-11-04T05:57:24.915Z,77.73
2016-11-04T05:58:24.943Z,77.73
2016-11-04T05:59:24.943Z,77.36
2016-11-04T06:00:24.964Z,77.07
2016-11-04T06:01:24.980Z,77.45
2016-11-04T06:02:24.999Z,77.73
2016-11-04T06:03:25.010Z,77.17
2016-11-04T06:04:25.051Z,77.83
2016-11-04T06:05:25.037Z,77.64
2016-11-04T06:06:25.053Z,77.83
2016-11-04T06:07:25.066Z,77.07
2016-11-04T06:08:25.075Z,77.64
2016-11-04T06:09:25.094Z,77.07
2016-11-04T06:10:25.108Z,76.97
2016-11-04T06:11:25.114Z,77.36
2016-11-04T06:12:25.136Z,77.07
2016-11-04T06:13:25.146Z,77.83
2016-11-04T06:14:25.161Z,77.55
2016-11-04T06:15:25.180Z,76.78
2016-11-04T06:16:25.195Z,76.97
2016-11-04T06:17:25.211Z,77.83
2016-11-04T06:18:25.220Z,77.07
2016-11-04T06:19:25.236Z,77.73
2016-11-04T06:20:25.250Z,77.83
2016-11-04T06:21:25.255Z,77.07
2016-11-04T06:22:25.278Z,77.64
2016-11-04T06:23:25.292Z,77.26
2016-11-04T06:24:25.307Z,77.64
2016-11-04T06:25:25.323Z,77.64
2016-11-04T06:26:25.340Z,77.36
2016-11-04T06:27:25.350Z,77.36
2016-11-04T06:28:25.360Z,77.36
2016-11-04T06:29:25.376Z,77.73
2016-11-04T06:30:25.391Z,77.36
2016-11-04T06:31:25.414Z,77.83
2016-11-04T06:32:25.431Z,77.55
2016-11-04T06:33:25.433Z,77.45
2016-11-04T06:34:25.448Z,77.73
2016-11-04T06:35:25.469Z,77.17
2016-11-04T06:36:25.475Z,78.02
2016-11-04T06:37:25.494Z,77.73
2016-11-04T06:38:25.513Z,77.26
2016-11-04T06:39:25.521Z,77.36
2016-11-04T06:40:25.534Z,77.17
2016-11-04T06:41:25.549Z,77.45
2016-11-04T06:42:25.571Z,77.83
2016-11-04T06:43:25.566Z,76.97
2016-11-04T06:44:25.592Z,77.64
2016-11-04T06:45:25.600Z,77.36
2016-11-04T06:46:25.622Z,78.02
2016-11-04T06:47:25.641Z,78.02
2016-11-04T06:48:25.654Z,77.83
2016-11-04T06:49:25.678Z,77.36
2016-11-04T06:50:25.683Z,77.92
2016-11-04T06:51:25.687Z,77.83
2016-11-04T06:52:25.703Z,78.11
2016-11-04T06:53:25.716Z,78.02
2016-11-04T06:54:25.746Z,78.02
2016-11-04T06:55:25.748Z,77.83
2016-11-04T06:56:25.767Z,78.02
2016-11-04T06:57:25.781Z,78.11
2016-11-04T06:58:25.793Z,77.83
2016-11-04T06:59:25.817Z,77.83
2016-11-04T07:00:25.941Z,78.02
2016-11-04T07:01:25.835Z,78.02
2016-11-04T07:02:25.850Z,77.83
2016-11-04T07:03:25.863Z,78.02
2016-11-04T07:04:25.868Z,77.45
2016-11-04T07:05:25.889Z,77.83
2016-11-04T07:06:25.909Z,77.36
2016-11-04T07:07:25.915Z,77.83
2016-11-04T07:08:25.933Z,78.11
2016-11-04T07:09:25.943Z,78.11
2016-11-04T07:10:25.961Z,77.36
2016-11-04T07:11:25.975Z,77.45
2016-11-04T07:12:25.991Z,78.02
2016-11-04T07:13:26.009Z,77.73
2016-11-04T07:14:26.017Z,77.45
2016-11-04T07:15:26.028Z,77.83
2016-11-04T07:16:26.048Z,78.11
2016-11-04T07:17:26.062Z,77.83
2016-11-04T07:18:26.075Z,77.83
2016-11-04T07:19:26.093Z,77.92
2016-11-04T07:20:26.105Z,78.11
2016-11-04T07:21:26.117Z,77.92
2016-11-04T07:22:26.131Z,77.83
2016-11-04T07:23:26.180Z,78.11
2016-11-04T07:24:26.160Z,77.64
2016-11-04T07:25:26.214Z,77.83
2016-11-04T07:26:26.185Z,77.17
2016-11-04T07:27:26.206Z,77.36
2016-11-04T07:28:26.219Z,78.02
2016-11-04T07:29:26.234Z,77.17
2016-11-04T07:30:26.244Z,78.11
2016-11-04T07:31:26.261Z,77.49
2016-11-04T07:32:26.275Z,78.02
2016-11-04T07:33:26.291Z,78.11
2016-11-04T07:34:26.302Z,78.06
2016-11-04T07:35:26.319Z,77.58
2016-11-04T07:36:26.335Z,77.11
2016-11-04T07:37:26.342Z,77.87
2016-11-04T07:38:26.361Z,78.06
2016-11-04T07:39:26.375Z,78.16
2016-11-04T07:40:26.389Z,78.06
2016-11-04T07:41:26.402Z,78.06
2016-11-04T07:42:26.421Z,77.77
2016-11-04T07:43:26.428Z,77.97
2016-11-04T07:44:26.444Z,77.87
2016-11-04T07:45:26.465Z,78.06
2016-11-04T07:46:26.549Z,77.87
2016-11-04T07:47:26.487Z,77.49
2016-11-04T07:48:26.508Z,77.49
2016-11-04T07:49:26.517Z,78.06
2016-11-04T07:50:26.532Z,77.49
2016-11-04T07:51:26.545Z,77.87
2016-11-04T07:52:26.560Z,77.58
2016-11-04T07:53:26.574Z,78.06
2016-11-04T07:54:26.590Z,77.87
2016-11-04T07:55:26.607Z,77.77
2016-11-04T07:56:26.617Z,77.11
2016-11-04T07:57:26.638Z,77.11
2016-11-04T07:58:26.761Z,77.49
2016-11-04T07:59:26.664Z,78.06
2016-11-04T08:00:26.716Z,77.87
2016-11-04T08:01:26.691Z,77.39
2016-11-04T08:02:26.706Z,77.87
2016-11-04T08:03:26.722Z,77.77
2016-11-04T08:04:26.735Z,77.77
2016-11-04T08:05:26.757Z,77.87
2016-11-04T08:06:26.765Z,77.68
2016-11-04T08:07:26.779Z,78.06
2016-11-04T08:08:26.797Z,77.97
2016-11-04T08:09:26.808Z,77.97
2016-11-04T08:10:26.824Z,78.06
2016-11-04T08:11:26.838Z,77.87
2016-11-04T08:12:26.852Z,77.97
2016-11-04T08:13:26.866Z,78.06
2016-11-04T08:14:26.880Z,77.87
2016-11-04T08:15:26.942Z,77.87
2016-11-04T08:16:26.913Z,77.87
2016-11-04T08:17:26.929Z,77.58
2016-11-04T08:18:26.940Z,78.06
2016-11-04T08:19:26.990Z,77.3
2016-11-04T08:20:26.971Z,77.97
2016-11-04T08:21:26.978Z,78.06
2016-11-04T08:22:26.992Z,77.87
2016-11-04T08:23:27.015Z,78.06
2016-11-04T08:24:27.019Z,78.06
2016-11-04T08:25:27.042Z,78.06
2016-11-04T08:26:27.362Z,78.06
2016-11-04T08:27:27.071Z,77.87
2016-11-04T08:28:27.089Z,77.49
2016-11-04T08:29:27.115Z,77.68
2016-11-04T08:30:27.117Z,77.68
2016-11-04T08:31:27.128Z,77.3
2016-11-04T08:32:27.146Z,77.2
2016-11-04T08:33:27.161Z,78.16
2016-11-04T08:34:27.172Z,77.87
2016-11-04T08:35:27.204Z,77.49
2016-11-04T08:36:27.204Z,78.16
2016-11-04T08:37:27.215Z,78.16
2016-11-04T08:38:27.232Z,77.43
2016-11-04T08:39:27.249Z,77.91
2016-11-04T08:40:27.262Z,77.34
2016-11-04T08:41:27.272Z,77.15
2016-11-04T08:42:27.291Z,77.72
2016-11-04T08:43:27.306Z,77.91
2016-11-04T08:44:27.441Z,77.05
2016-11-04T08:45:27.389Z,77.43
2016-11-04T08:46:27.351Z,77.87
2016-11-04T08:47:27.364Z,77.43
2016-11-04T08:48:27.375Z,77.91
2016-11-04T08:49:27.390Z,77.43
2016-11-04T08:50:27.410Z,77.62
2016-11-04T08:51:27.424Z,77.34
2016-11-04T08:52:27.434Z,77.05
2016-11-04T08:53:27.451Z,77.62
2016-11-04T08:54:27.466Z,77.53
2016-11-04T08:55:27.482Z,77.43
2016-11-04T08:56:27.499Z,77.05
2016-11-04T08:57:27.510Z,77.81
2016-11-04T08:58:27.610Z,76.86
2016-11-04T08:59:27.661Z,77.05
2016-11-04T09:00:27.555Z,77.24
2016-11-04T09:01:27.565Z,76.86
2016-11-04T09:02:27.675Z,76.86
2016-11-04T09:03:27.601Z,76.57
2016-11-04T09:04:27.615Z,77.24
2016-11-04T09:05:27.629Z,77.34
2016-11-04T09:06:27.720Z,77.15
2016-11-04T09:07:27.659Z,77.34
2016-11-04T09:08:27.673Z,77.24
2016-11-04T09:09:27.686Z,77.24
2016-11-04T09:10:27.704Z,76.86
2016-11-04T09:11:27.722Z,76.76
2016-11-04T09:12:27.732Z,76.67
2016-11-04T09:13:27.748Z,77.24
2016-11-04T09:14:27.768Z,76.71
2016-11-04T09:15:27.774Z,77.09
2016-11-04T09:16:27.794Z,77
2016-11-04T09:17:27.805Z,76.9
2016-11-04T09:18:27.825Z,76.81
2016-11-04T09:19:27.839Z,76.04
2016-11-04T09:20:27.849Z,75.67
2016-11-04T09:21:27.863Z,76.14
2016-11-04T09:22:27.885Z,76.04
2016-11-04T09:23:27.903Z,75.95
2016-11-04T09:24:27.913Z,76.42
2016-11-04T09:25:27.928Z,75.85
2016-11-04T09:26:27.943Z,76.33
2016-11-04T09:27:27.955Z,76.23
2016-11-04T09:28:27.974Z,76.33
2016-11-04T09:29:27.991Z,76.42
2016-11-04T09:30:28.118Z,75.95
2016-11-04T09:31:28.018Z,76.23
2016-11-04T09:32:28.040Z,76.52
2016-11-04T09:33:28.052Z,76.04
2016-11-04T09:34:28.066Z,76.42
2016-11-04T09:35:28.133Z,76.04
2016-11-04T09:36:28.099Z,75.95
2016-11-04T09:37:28.113Z,76.14
2016-11-04T09:38:28.131Z,76.14
2016-11-04T09:39:28.144Z,75.19
2016-11-04T09:40:28.157Z,75.95
2016-11-04T09:41:28.171Z,75.76
2016-11-04T09:42:28.191Z,75.47
2016-11-04T09:43:28.201Z,75.09
2016-11-04T09:44:28.222Z,74.8
2016-11-04T09:45:28.235Z,74.62
2016-11-04T09:46:28.251Z,74.8
2016-11-04T09:47:28.269Z,74.46
2016-11-04T09:48:28.279Z,74.08
2016-11-04T09:49:28.297Z,73.7
2016-11-04T09:50:28.314Z,73.99
2016-11-04T09:51:28.328Z,73.03
2016-11-04T09:52:28.347Z,73.32
2016-11-04T09:53:28.359Z,73.99
2016-11-04T09:54:28.374Z,73.8
2016-11-04T09:55:28.388Z,73.51
2016-11-04T09:56:28.404Z,73.51
2016-11-04T09:57:28.415Z,73.51
2016-11-04T09:58:28.436Z,73.7
2016-11-04T09:59:28.451Z,73.03
2016-11-04T10:00:28.466Z,73.61
2016-11-04T10:01:28.486Z,73.03
2016-11-04T10:02:28.504Z,73.03
2016-11-04T10:03:28.517Z,73.13
2016-11-04T10:04:28.529Z,72.94
2016-11-04T10:05:28.547Z,73.41
2016-11-04T10:06:28.665Z,73.41
2016-11-04T10:07:28.580Z,73.8
2016-11-04T10:08:28.597Z,73.22
2016-11-04T10:09:28.704Z,72.78
2016-11-04T10:10:28.661Z,73.36
2016-11-04T10:11:28.670Z,73.22
2016-11-04T10:12:28.679Z,73.07
2016-11-04T10:13:28.672Z,72.97
2016-11-04T10:14:28.689Z,72.97
2016-11-04T10:15:29.016Z,72.69
2016-11-04T10:16:28.720Z,72.69
2016-11-04T10:17:28.731Z,73.55
2016-11-04T10:18:28.751Z,72.78
2016-11-04T10:19:28.764Z,72.78
2016-11-04T10:20:28.783Z,72.78
2016-11-04T10:21:28.794Z,72.5
2016-11-04T10:22:28.812Z,73.26
2016-11-04T10:23:28.826Z,72.97
2016-11-04T10:24:28.843Z,73.07
2016-11-04T10:25:28.860Z,72.69
2016-11-04T10:26:28.876Z,72.78
2016-11-04T10:27:28.892Z,72.41
2016-11-04T10:28:28.906Z,72.78
2016-11-04T10:29:28.923Z,72.12
2016-11-04T10:30:28.939Z,72.12
2016-11-04T10:31:28.952Z,72.41
2016-11-04T10:32:28.965Z,72.5
2016-11-04T10:33:28.988Z,72.02
2016-11-04T10:34:29.003Z,72.31
2016-11-04T10:35:29.022Z,72.12
2016-11-04T10:36:29.030Z,72.12
2016-11-04T10:37:29.046Z,72.41
2016-11-04T10:38:29.067Z,72.12
2016-11-04T10:39:29.091Z,72.6
2016-11-04T10:40:29.097Z,71.83
2016-11-04T10:41:29.112Z,71.36
2016-11-04T10:42:29.123Z,71.73
2016-11-04T10:43:29.147Z,70.97
2016-11-04T10:44:29.173Z,71.17
2016-11-04T10:45:29.185Z,71.26
2016-11-04T10:46:29.203Z,70.88
2016-11-04T10:47:29.210Z,70.59
2016-11-04T10:48:29.229Z,71.17
2016-11-04T10:49:29.243Z,71.26
2016-11-04T10:50:29.258Z,71.26
2016-11-04T10:51:29.274Z,71.26
2016-11-04T10:52:29.294Z,71.26
2016-11-04T10:53:29.301Z,71.17
2016-11-04T10:54:29.323Z,71.26
2016-11-04T10:55:29.346Z,71.17
2016-11-04T10:56:29.407Z,71.26
2016-11-04T10:57:29.373Z,71.17
2016-11-04T10:58:29.385Z,71.26
2016-11-04T10:59:29.412Z,70.59
2016-11-04T11:00:29.416Z,70.78
2016-11-04T11:01:29.439Z,70.4
2016-11-04T11:02:29.458Z,70.5
2016-11-04T11:03:29.475Z,70.31
2016-11-04T11:04:29.483Z,69.93
2016-11-04T11:05:29.494Z,70.02
2016-11-04T11:06:29.512Z,70.4
2016-11-04T11:07:29.535Z,70.69
2016-11-04T11:08:29.550Z,70.4
2016-11-04T11:09:29.565Z,70.69
2016-11-04T11:10:29.583Z,70.31
2016-11-04T11:11:29.598Z,70.97
2016-11-04T11:12:29.923Z,70.59
2016-11-04T11:13:29.631Z,70.88
2016-11-04T11:14:29.645Z,71.26
2016-11-04T11:15:29.674Z,70.5
2016-11-04T11:16:29.675Z,70.97
2016-11-04T11:17:29.699Z,70.88
2016-11-04T11:18:29.765Z,71.36
2016-11-04T11:19:29.722Z,71.17
2016-11-04T11:20:29.741Z,71.36
2016-11-04T11:21:29.755Z,71.26
2016-11-04T11:22:29.772Z,70.69
2016-11-04T11:23:29.787Z,70.69
2016-11-04T11:24:29.810Z,70.97
2016-11-04T11:25:29.828Z,70.97
2016-11-04T11:26:29.854Z,70.59
2016-11-04T11:27:29.868Z,70.78
2016-11-04T11:28:29.872Z,70.97
2016-11-04T11:29:29.978Z,70.78
2016-11-04T11:30:29.904Z,70.78
2016-11-04T11:31:29.924Z,70.88
2016-11-04T11:32:29.951Z,70.88
2016-11-04T11:33:30.005Z,71.07
2016-11-04T11:34:29.970Z,70.97
2016-11-04T11:35:29.981Z,70.78
2016-11-04T11:36:30.005Z,70.59
2016-11-04T11:37:30.028Z,70.4
2016-11-04T11:38:30.045Z,70.21
2016-11-04T11:39:30.054Z,70.5
2016-11-04T11:40:30.072Z,70.5
2016-11-04T11:41:30.095Z,70.4
2016-11-04T11:42:30.101Z,70.59
2016-11-04T11:43:30.235Z,70.12
2016-11-04T11:44:30.128Z,69.93
2016-11-04T11:45:30.155Z,70.88
2016-11-04T11:46:30.166Z,70.4
2016-11-04T11:47:30.299Z,70.02
2016-11-04T11:48:30.213Z,70.02
2016-11-04T11:49:30.218Z,70.21
2016-11-04T11:50:30.231Z,70.12
2016-11-04T11:51:30.248Z,70.02
2016-11-04T11:52:30.266Z,70.69
2016-11-04T11:53:30.282Z,70.4
2016-11-04T11:54:30.298Z,70.31
2016-11-04T11:55:30.309Z,70.4
2016-11-04T11:56:30.331Z,70.4
2016-11-04T11:57:30.346Z,70.31
2016-11-04T11:58:30.363Z,70.4
2016-11-04T11:59:30.489Z,70.4
2016-11-04T12:00:30.392Z,70.69
2016-11-04T12:01:30.416Z,70.31
2016-11-04T12:02:30.427Z,70.78
2016-11-04T12:03:30.444Z,70.31
2016-11-04T12:04:30.461Z,70.4
2016-11-04T12:05:30.475Z,70.31
2016-11-04T12:06:30.601Z,70.59
2016-11-04T12:07:30.509Z,70.21
2016-11-04T12:08:30.642Z,70.02
2016-11-04T12:09:30.537Z,70.12
2016-11-04T12:10:30.558Z,70.59
2016-11-04T12:11:30.584Z,70.78
2016-11-04T12:12:30.591Z,70.31
2016-11-04T12:13:30.728Z,70.5
2016-11-04T12:14:30.626Z,70.4
2016-11-04T12:15:30.635Z,70.4
2016-11-04T12:16:30.646Z,70.4
2016-11-04T12:17:30.670Z,70.5
2016-11-04T12:18:30.688Z,70.4
2016-11-04T12:19:30.703Z,70.12
2016-11-04T12:20:30.720Z,70.25
2016-11-04T12:21:30.739Z,70.5
2016-11-04T12:22:30.752Z,70.31
2016-11-04T12:23:30.888Z,70.63
2016-11-04T12:24:30.789Z,70.88
2016-11-04T12:25:30.801Z,70.78
2016-11-04T12:26:31.009Z,70.82
2016-11-04T12:27:30.836Z,70.82
2016-11-04T12:28:30.956Z,70.44
2016-11-04T12:29:30.954Z,70.34
2016-11-04T12:30:30.887Z,70.44
2016-11-04T12:31:31.015Z,70.53
2016-11-04T12:32:30.918Z,70.72
2016-11-04T12:33:30.929Z,70.44
2016-11-04T12:34:30.956Z,70.63
2016-11-04T12:35:30.967Z,70.72
2016-11-04T12:36:30.984Z,70.53
2016-11-04T12:37:31.006Z,70.53
2016-11-04T12:38:31.022Z,70.72
2016-11-04T12:39:31.036Z,70.92
2016-11-04T12:40:31.052Z,70.44
2016-11-04T12:41:31.249Z,70.63
2016-11-04T12:42:31.079Z,70.15
2016-11-04T12:43:31.194Z,70.06
2016-11-04T12:44:31.127Z,70.44
2016-11-04T12:45:31.206Z,69.96
2016-11-04T12:46:31.151Z,69.39
2016-11-04T12:47:31.198Z,70.53
2016-11-04T12:48:31.183Z,70.53
2016-11-04T12:49:31.194Z,69.96
2016-11-04T12:50:31.328Z,70.15
2016-11-04T12:51:31.233Z,70.06
2016-11-04T12:52:31.250Z,69.48
2016-11-04T12:53:31.267Z,70.44
2016-11-04T12:54:31.282Z,69.39
2016-11-04T12:55:31.299Z,69.68